Time;durP1;ratioP1;P1;durP2;ratioP2;P2;SDS_P1;SDS_P2;PMS_P1;PMS_P2;Temp;Humidity;BMP_temperature;BMP_pressure;BME280_temperature;BME280_humidity;BME280_pressure;Samples;Min_cycle;Max_cycle;Signal;HPM_P1;HPM_P2
2021/12/01 00:00:58;;;;;;;0.68;0.68;;;10.60;91.80;;;;;;5133815;27;20035;-73
2021/12/01 00:03:24;;;;;;;4.30;2.42;;;10.60;91.80;;;;;;5133576;27;20428;-73
2021/12/01 00:05:51;;;;;;;1.35;1.00;;;10.60;92.00;;;;;;5134022;27;20090;-73
2021/12/01 00:08:17;;;;;;;2.20;1.20;;;10.60;92.00;;;;;;5133207;27;20058;-73
2021/12/01 00:10:43;;;;;;;6.80;2.45;;;10.60;92.00;;;;;;5134016;27;20023;-74
2021/12/01 00:13:13;;;;;;;4.32;2.55;;;10.50;92.10;;;;;;5133051;27;20066;-74
2021/12/01 00:15:41;;;;;;;3.95;2.60;;;10.50;92.50;;;;;;5133828;27;20110;-72
2021/12/01 00:18:07;;;;;;;3.60;2.38;;;10.60;92.60;;;;;;5134170;27;20027;-73
2021/12/01 00:20:34;;;;;;;4.28;2.45;;;10.60;92.30;;;;;;5132556;27;20432;-73
2021/12/01 00:22:59;;;;;;;2.22;1.50;;;10.60;92.30;;;;;;5133945;27;20061;-76
2021/12/01 00:25:29;;;;;;;7.93;3.78;;;10.60;92.60;;;;;;5133121;27;20039;-72
2021/12/01 00:27:56;;;;;;;5.30;2.90;;;10.60;92.40;;;;;;5132636;27;20062;-73
2021/12/01 00:30:23;;;;;;;4.55;2.67;;;10.60;92.40;;;;;;5114045;27;20118;-73
2021/12/01 00:32:51;;;;;;;3.90;2.67;;;10.60;92.40;;;;;;5133869;27;20072;-73
2021/12/01 00:35:17;;;;;;;3.15;1.88;;;10.70;92.50;;;;;;5127408;27;20032;-73
2021/12/01 00:37:43;;;;;;;1.17;1.00;;;10.70;92.50;;;;;;5133579;27;20019;-73
2021/12/01 00:40:10;;;;;;;1.52;1.08;;;10.70;92.50;;;;;;5133382;27;20029;-73
2021/12/01 00:42:36;;;;;;;3.33;1.60;;;10.70;92.70;;;;;;5132628;27;20069;-73
2021/12/01 00:45:11;;;;;;;5.70;3.75;;;10.70;92.50;;;;;;5133078;27;20078;-73
2021/12/01 00:47:53;;;;;;;3.05;1.90;;;10.70;92.60;;;;;;5133039;27;20055;-73
2021/12/01 00:50:23;;;;;;;4.45;2.42;;;10.70;92.70;;;;;;5133070;27;20397;-73
2021/12/01 00:52:50;;;;;;;4.35;3.03;;;10.70;92.90;;;;;;5132047;27;20072;-72
2021/12/01 00:55:15;;;;;;;4.95;2.58;;;10.70;93.20;;;;;;5126754;27;20477;-73
2021/12/01 00:57:41;;;;;;;8.50;3.70;;;10.60;93.40;;;;;;5133930;27;20113;-73
2021/12/01 01:00:08;;;;;;;5.82;2.97;;;10.60;93.60;;;;;;5126761;27;20410;-73
2021/12/01 01:02:35;;;;;;;7.15;2.65;;;10.60;93.90;;;;;;5132779;27;20023;-74
2021/12/01 01:05:00;;;;;;;6.45;3.58;;;10.60;94.20;;;;;;5131118;27;20046;-73
2021/12/01 01:07:26;;;;;;;6.97;3.42;;;10.50;94.40;;;;;;5133053;27;20118;-73
2021/12/01 01:09:52;;;;;;;5.80;3.80;;;10.50;94.60;;;;;;5131684;27;20038;-73
2021/12/01 01:18:02;;;;;;;12.98;4.07;;;10.50;95.40;;;;;;5119262;27;20360;-73
2021/12/01 01:20:28;;;;;;;7.38;4.20;;;10.40;95.60;;;;;;5132398;27;20031;-73
2021/12/01 01:22:54;;;;;;;8.80;4.22;;;10.40;95.70;;;;;;5119334;27;20382;-74
2021/12/01 01:25:20;;;;;;;12.55;4.97;;;10.50;95.90;;;;;;5132268;27;20039;-73
2021/12/01 01:27:45;;;;;;;9.20;5.32;;;10.50;96.00;;;;;;5131630;27;20034;-73
2021/12/01 01:30:11;;;;;;;22.83;5.00;;;10.50;96.10;;;;;;5121592;27;20027;-74
2021/12/01 01:32:37;;;;;;;12.25;6.15;;;10.50;96.10;;;;;;5130766;27;20019;-74
2021/12/01 01:35:03;;;;;;;18.17;5.03;;;10.50;96.20;;;;;;5132468;27;20023;-73
2021/12/01 01:37:28;;;;;;;9.80;5.60;;;10.50;96.30;;;;;;5130890;27;20030;-73
2021/12/01 01:39:54;;;;;;;13.43;5.18;;;10.50;96.30;;;;;;5132438;27;20031;-73
2021/12/01 01:42:19;;;;;;;9.20;5.18;;;10.60;96.50;;;;;;5132653;27;20378;-73
2021/12/01 01:44:45;;;;;;;6.15;3.25;;;10.60;96.50;;;;;;5131215;28;20043;-73
2021/12/01 01:47:11;;;;;;;8.90;4.55;;;10.60;96.60;;;;;;5132772;28;20031;-73
2021/12/01 01:52:22;;;;;;;10.70;3.95;;;10.60;96.70;;;;;;5125556;28;20156;-73
2021/12/01 01:54:48;;;;;;;11.77;5.35;;;10.70;96.70;;;;;;5127302;28;20114;-73
2021/12/01 01:57:14;;;;;;;14.85;5.00;;;10.70;96.70;;;;;;5124447;28;20467;-73
2021/12/01 01:59:40;;;;;;;15.82;5.25;;;10.70;96.80;;;;;;5130762;28;20027;-73
2021/12/01 02:02:05;;;;;;;14.35;4.45;;;10.70;96.90;;;;;;5132807;28;20019;-73
2021/12/01 02:04:34;;;;;;;11.25;5.72;;;10.70;96.90;;;;;;5131322;27;20483;-73
2021/12/01 02:07:01;;;;;;;15.05;4.55;;;10.70;97.00;;;;;;5134687;27;20034;-73
2021/12/01 02:09:27;;;;;;;7.72;3.83;;;10.80;97.00;;;;;;5136438;27;20574;-73
2021/12/01 02:11:56;;;;;;;9.52;3.85;;;10.80;97.10;;;;;;5134284;27;20054;-73
2021/12/01 02:14:22;;;;;;;13.93;3.92;;;10.80;97.10;;;;;;5135664;27;20525;-73
2021/12/01 02:16:48;;;;;;;8.38;3.53;;;10.80;97.10;;;;;;5136387;27;20368;-73
2021/12/01 02:19:15;;;;;;;6.70;3.05;;;10.80;97.10;;;;;;5117536;27;20031;-73
2021/12/01 02:21:41;;;;;;;10.38;3.42;;;10.80;97.10;;;;;;5134252;27;20016;-73
2021/12/01 02:24:10;;;;;;;9.50;2.75;;;10.80;97.10;;;;;;5128410;27;20436;-73
2021/12/01 02:26:39;;;;;;;8.90;2.65;;;10.90;97.10;;;;;;5133915;27;20042;-73
2021/12/01 02:29:08;;;;;;;6.97;2.15;;;10.90;97.20;;;;;;5133985;27;20035;-73
2021/12/01 02:31:36;;;;;;;8.60;2.25;;;10.90;97.20;;;;;;5135166;27;20035;-73
2021/12/01 02:34:08;;;;;;;7.05;2.28;;;11.00;97.10;;;;;;5135558;27;20031;-73
2021/12/01 02:36:34;;;;;;;6.47;2.83;;;11.00;97.10;;;;;;5134660;27;20075;-73
2021/12/01 02:39:01;;;;;;;4.15;1.95;;;10.90;97.10;;;;;;5135818;27;20026;-73
2021/12/01 02:41:29;;;;;;;7.55;2.08;;;11.00;97.20;;;;;;5135400;27;20118;-73
2021/12/01 02:43:55;;;;;;;2.63;1.58;;;11.00;97.10;;;;;;5135117;27;20047;-73
2021/12/01 02:46:21;;;;;;;3.58;1.30;;;11.00;97.20;;;;;;5135965;27;20477;-73
2021/12/01 02:48:47;;;;;;;5.28;1.73;;;11.00;97.20;;;;;;5134014;27;20470;-73
2021/12/01 02:51:13;;;;;;;3.42;1.60;;;11.00;97.20;;;;;;5135428;27;20084;-73
2021/12/01 02:53:41;;;;;;;7.10;1.73;;;11.00;97.30;;;;;;5134643;27;20064;-73
2021/12/01 02:56:07;;;;;;;5.20;1.20;;;11.00;97.40;;;;;;5134992;27;20035;-73
2021/12/01 02:58:39;;;;;;;2.67;0.80;;;11.00;97.50;;;;;;5135422;27;20019;-74
2021/12/01 03:01:10;;;;;;;3.63;1.10;;;10.90;97.70;;;;;;5130443;27;20042;-74
2021/12/01 03:03:39;;;;;;;2.28;1.00;;;10.90;97.90;;;;;;5133350;27;20168;-74
2021/12/01 03:06:05;;;;;;;0.77;0.57;;;10.90;97.90;;;;;;5135398;27;20035;-74
2021/12/01 03:08:33;;;;;;;2.10;1.02;;;10.90;97.80;;;;;;5134465;27;20024;-74
2021/12/01 03:10:58;;;;;;;1.75;0.73;;;11.00;97.70;;;;;;5134774;27;20470;-74
2021/12/01 03:13:25;;;;;;;7.18;1.25;;;11.10;97.70;;;;;;5135555;27;20030;-74
2021/12/01 03:15:51;;;;;;;6.13;1.58;;;11.10;97.60;;;;;;5132775;27;20027;-74
2021/12/01 03:18:17;;;;;;;3.83;1.33;;;11.10;97.60;;;;;;5135078;27;20027;-74
2021/12/01 03:20:46;;;;;;;7.55;1.38;;;11.20;97.60;;;;;;5134443;27;20027;-74
2021/12/01 03:23:12;;;;;;;2.70;0.93;;;11.20;97.50;;;;;;5130195;27;20036;-74
2021/12/01 03:25:38;;;;;;;4.10;1.23;;;11.20;97.50;;;;;;5132887;27;20114;-74
2021/12/01 03:28:09;;;;;;;4.43;1.13;;;11.20;97.50;;;;;;5134094;27;20019;-74
2021/12/01 03:30:37;;;;;;;1.63;1.08;;;11.20;97.50;;;;;;5127408;27;20103;-74
2021/12/01 03:33:06;;;;;;;1.27;0.98;;;11.20;97.40;;;;;;5128740;27;20029;-74
2021/12/01 03:35:33;;;;;;;4.68;1.00;;;11.20;97.60;;;;;;5134118;27;20102;-74
2021/12/01 03:37:59;;;;;;;6.82;1.70;;;11.20;97.60;;;;;;5133917;27;20110;-74
2021/12/01 03:40:24;;;;;;;4.80;1.50;;;11.20;97.70;;;;;;5134381;27;20023;-74
2021/12/01 03:42:50;;;;;;;3.42;1.10;;;11.20;97.70;;;;;;5134636;27;20386;-74
2021/12/01 03:45:17;;;;;;;2.28;1.15;;;11.20;97.80;;;;;;5133898;27;20506;-74
2021/12/01 03:47:43;;;;;;;3.38;1.40;;;11.30;97.80;;;;;;5134064;27;20038;-74
2021/12/01 03:50:09;;;;;;;1.63;0.80;;;11.30;97.80;;;;;;5134172;27;20024;-74
2021/12/01 03:52:36;;;;;;;1.20;0.80;;;11.20;97.70;;;;;;5133612;27;20027;-75
2021/12/01 03:55:02;;;;;;;2.53;1.00;;;11.30;97.80;;;;;;5134306;27;20035;-78
2021/12/01 03:57:28;;;;;;;3.50;0.80;;;11.20;97.90;;;;;;5133505;27;20518;-74
2021/12/01 03:59:53;;;;;;;9.30;1.52;;;11.20;98.00;;;;;;5133006;27;20031;-73
2021/12/01 04:02:19;;;;;;;5.82;1.50;;;11.20;98.00;;;;;;5133991;27;20031;-74
2021/12/01 04:04:45;;;;;;;8.50;2.13;;;11.10;98.10;;;;;;5131435;27;20046;-73
2021/12/01 04:07:11;;;;;;;6.20;2.28;;;11.20;98.10;;;;;;5133329;27;20031;-73
2021/12/01 04:09:40;;;;;;;13.48;2.08;;;11.20;98.10;;;;;;5133700;27;20027;-73
2021/12/01 04:12:06;;;;;;;10.10;1.75;;;11.20;98.10;;;;;;5132553;27;20031;-74
2021/12/01 04:14:32;;;;;;;7.65;1.98;;;11.20;98.00;;;;;;5133860;27;20387;-76
2021/12/01 04:16:58;;;;;;;6.45;1.85;;;11.20;98.00;;;;;;5133300;27;20034;-74
2021/12/01 04:19:24;;;;;;;6.57;1.73;;;11.30;98.00;;;;;;5132143;27;20038;-68
2021/12/01 04:21:49;;;;;;;6.13;2.10;;;11.30;98.00;;;;;;5133513;27;20502;-73
2021/12/01 04:24:15;;;;;;;7.30;1.67;;;11.30;97.90;;;;;;5132929;27;20043;-73
2021/12/01 04:26:41;;;;;;;6.60;1.77;;;11.30;97.80;;;;;;5128707;27;20031;-73
2021/12/01 04:29:07;;;;;;;17.15;2.15;;;11.30;97.80;;;;;;5132660;27;20027;-73
2021/12/01 04:31:36;;;;;;;14.18;1.60;;;11.30;97.90;;;;;;5124539;27;20747;-72
2021/12/01 04:34:02;;;;;;;6.22;1.50;;;11.40;97.80;;;;;;5127835;27;20095;-73
2021/12/01 04:36:32;;;;;;;10.43;2.00;;;11.40;97.80;;;;;;5133406;27;20038;-72
2021/12/01 04:38:57;;;;;;;4.85;1.30;;;11.40;97.70;;;;;;5133021;27;20106;-72
2021/12/01 04:41:24;;;;;;;6.30;1.33;;;11.40;97.70;;;;;;5131613;27;20125;-73
2021/12/01 04:43:53;;;;;;;9.43;1.60;;;11.40;97.70;;;;;;5133594;27;20047;-73
2021/12/01 04:46:20;;;;;;;6.80;1.40;;;11.40;97.80;;;;;;5132576;27;20031;-73
2021/12/01 04:48:47;;;;;;;8.82;1.65;;;11.40;97.80;;;;;;5133068;27;20031;-73
2021/12/01 04:51:13;;;;;;;5.68;1.60;;;11.40;97.80;;;;;;5132639;27;20035;-73
2021/12/01 04:53:39;;;;;;;6.00;1.77;;;11.40;97.70;;;;;;5133559;27;20088;-73
2021/12/01 04:56:06;;;;;;;5.38;1.20;;;11.40;97.80;;;;;;5132575;27;20034;-73
2021/12/01 04:58:33;;;;;;;5.18;0.88;;;11.40;97.80;;;;;;5133010;27;20031;-73
2021/12/01 05:00:59;;;;;;;1.52;0.80;;;11.50;97.80;;;;;;5128209;27;20027;-73
2021/12/01 05:03:25;;;;;;;1.85;1.10;;;11.40;97.80;;;;;;5130333;27;20031;-73
2021/12/01 05:05:51;;;;;;;1.85;0.88;;;11.40;97.80;;;;;;5132406;27;20035;-73
2021/12/01 05:08:18;;;;;;;2.45;1.02;;;11.40;97.80;;;;;;5131974;27;20024;-73
2021/12/01 05:10:43;;;;;;;5.00;1.00;;;11.40;97.80;;;;;;5132578;27;20107;-73
2021/12/01 05:13:09;;;;;;;4.07;0.80;;;11.50;97.70;;;;;;5132899;27;20079;-73
2021/12/01 05:15:35;;;;;;;0.60;0.60;;;11.50;97.70;;;;;;5130671;27;20039;-73
2021/12/01 05:18:00;;;;;;;1.02;0.63;;;11.50;97.70;;;;;;5132774;27;20030;-73
2021/12/01 05:20:26;;;;;;;0.77;0.70;;;11.50;97.70;;;;;;5132549;27;20031;-73
2021/12/01 05:22:52;;;;;;;1.15;0.77;;;11.50;97.70;;;;;;5131625;27;20065;-73
2021/12/01 05:25:17;;;;;;;0.77;0.70;;;11.50;97.70;;;;;;5132991;27;20042;-73
2021/12/01 05:27:43;;;;;;;0.75;0.75;;;11.40;97.80;;;;;;5131368;27;20038;-73
2021/12/01 05:30:09;;;;;;;1.08;0.95;;;11.40;97.80;;;;;;5127678;27;20027;-73
2021/12/01 05:32:35;;;;;;;0.68;0.60;;;11.40;97.90;;;;;;5127519;27;20033;-73
2021/12/01 05:35:05;;;;;;;1.27;0.80;;;11.40;97.80;;;;;;5131136;27;20050;-73
2021/12/01 05:37:30;;;;;;;1.30;0.70;;;11.40;97.80;;;;;;5131618;27;20087;-73
2021/12/01 05:39:56;;;;;;;2.30;0.60;;;11.40;97.90;;;;;;5131785;27;20034;-73
2021/12/01 05:42:22;;;;;;;0.60;0.60;;;11.40;97.90;;;;;;5123762;27;20027;-73
2021/12/01 05:44:48;;;;;;;0.65;0.65;;;11.40;97.90;;;;;;5127789;27;20055;-73
2021/12/01 05:47:14;;;;;;;2.38;0.70;;;11.40;97.90;;;;;;5131625;28;20066;-75
2021/12/01 05:49:43;;;;;;;1.23;0.60;;;11.30;98.00;;;;;;5129715;28;20038;-73
2021/12/01 05:52:09;;;;;;;0.40;0.40;;;11.30;98.00;;;;;;5131198;28;20024;-73
2021/12/01 05:54:35;;;;;;;0.60;0.60;;;11.30;98.10;;;;;;5132214;28;20061;-74
2021/12/01 05:57:02;;;;;;;0.50;0.50;;;11.30;98.00;;;;;;5132224;28;20020;-72
2021/12/01 05:59:28;;;;;;;1.85;0.70;;;11.20;98.00;;;;;;5127721;28;20023;-72
2021/12/01 06:01:54;;;;;;;1.30;0.80;;;11.20;98.10;;;;;;5127986;28;20027;-73
2021/12/01 06:04:20;;;;;;;0.65;0.60;;;11.20;98.10;;;;;;5127262;28;20051;-73
2021/12/01 06:06:46;;;;;;;0.88;0.80;;;11.10;98.20;;;;;;5127523;28;20027;-74
2021/12/01 06:09:14;;;;;;;1.13;1.00;;;11.10;98.20;;;;;;5129313;28;20486;-73
2021/12/01 06:11:40;;;;;;;0.70;0.70;;;11.10;98.20;;;;;;5128994;28;20061;-72
2021/12/01 06:14:08;;;;;;;1.27;1.10;;;11.10;98.30;;;;;;5129682;28;20478;-73
2021/12/01 06:16:34;;;;;;;1.27;1.17;;;11.10;98.30;;;;;;5128082;28;20107;-74
2021/12/01 06:18:59;;;;;;;1.33;1.20;;;11.10;98.30;;;;;;5127182;28;20136;-71
2021/12/01 06:21:25;;;;;;;2.03;1.27;;;11.10;98.30;;;;;;5129596;28;20534;-71
2021/12/01 06:23:51;;;;;;;2.00;1.20;;;11.10;98.40;;;;;;5129547;28;20043;-72
2021/12/01 06:26:17;;;;;;;2.10;1.30;;;11.10;98.30;;;;;;5128359;28;20025;-71
2021/12/01 06:28:45;;;;;;;1.30;1.20;;;11.00;98.30;;;;;;5129740;28;20046;-71
2021/12/01 06:31:11;;;;;;;1.50;1.10;;;11.00;98.30;;;;;;5129376;28;20129;-72
2021/12/01 06:33:36;;;;;;;1.60;1.08;;;11.00;98.30;;;;;;5129247;28;20106;-72
2021/12/01 06:36:04;;;;;;;2.53;1.10;;;11.00;98.30;;;;;;5129497;28;20063;-71
2021/12/01 06:38:29;;;;;;;1.23;1.10;;;11.00;98.40;;;;;;5127155;28;20049;-72
2021/12/01 06:40:55;;;;;;;1.40;1.17;;;11.00;98.40;;;;;;5127392;28;20031;-72
2021/12/01 06:43:21;;;;;;;1.35;1.10;;;10.90;98.40;;;;;;5128799;28;20081;-72
2021/12/01 06:45:47;;;;;;;1.17;1.08;;;10.90;98.50;;;;;;5131383;28;20058;-76
2021/12/01 06:48:12;;;;;;;1.48;1.35;;;11.00;98.40;;;;;;5126302;28;20474;-76
2021/12/01 06:50:38;;;;;;;1.00;0.90;;;11.00;98.40;;;;;;5131665;27;20034;-72
2021/12/01 06:53:04;;;;;;;1.17;1.08;;;11.00;98.40;;;;;;5135077;27;20031;-72
2021/12/01 06:55:30;;;;;;;1.50;0.90;;;11.00;98.30;;;;;;5134127;27;20115;-72
2021/12/01 06:57:55;;;;;;;2.17;1.20;;;11.00;98.20;;;;;;5134291;27;20100;-72
2021/12/01 07:00:21;;;;;;;1.13;0.77;;;11.00;98.20;;;;;;5134619;27;20493;-72
2021/12/01 07:02:47;;;;;;;0.80;0.80;;;10.90;98.20;;;;;;5133854;27;20023;-73
2021/12/01 07:05:13;;;;;;;1.23;1.00;;;11.00;98.30;;;;;;5132014;27;20497;-72
2021/12/01 07:07:39;;;;;;;0.88;0.88;;;10.90;98.30;;;;;;5132917;27;20038;-72
2021/12/01 07:10:08;;;;;;;1.00;1.00;;;10.90;98.20;;;;;;5134144;27;20368;-72
2021/12/01 07:12:33;;;;;;;0.88;0.80;;;10.90;98.20;;;;;;5134113;27;20023;-72
2021/12/01 07:14:59;;;;;;;1.90;0.90;;;10.90;98.30;;;;;;5134752;27;20073;-72
2021/12/01 07:17:25;;;;;;;0.68;0.68;;;10.90;98.60;;;;;;5134764;27;20537;-72
2021/12/01 07:19:50;;;;;;;2.63;0.70;;;10.90;98.40;;;;;;5135117;27;20027;-72
2021/12/01 07:22:16;;;;;;;1.13;1.10;;;10.90;98.30;;;;;;5134334;27;20080;-72
2021/12/01 07:24:43;;;;;;;0.93;0.93;;;10.90;98.20;;;;;;5135094;27;20046;-72
2021/12/01 07:27:09;;;;;;;0.95;0.95;;;10.90;98.20;;;;;;5135057;27;20106;-72
2021/12/01 07:29:35;;;;;;;1.33;1.02;;;10.90;98.10;;;;;;5133332;27;20110;-72
2021/12/01 07:32:02;;;;;;;1.45;1.20;;;11.00;98.10;;;;;;5125794;27;20385;-72
2021/12/01 07:34:27;;;;;;;1.70;1.30;;;10.90;98.10;;;;;;5134927;27;20039;-72
2021/12/01 07:36:53;;;;;;;1.20;1.17;;;11.00;98.00;;;;;;5133645;27;20026;-72
2021/12/01 07:39:19;;;;;;;1.70;1.20;;;10.90;98.00;;;;;;5134463;27;20406;-72
2021/12/01 07:41:46;;;;;;;1.73;1.20;;;10.90;98.00;;;;;;5134629;27;20031;-72
2021/12/01 07:44:13;;;;;;;1.75;1.02;;;11.00;98.00;;;;;;5133718;27;20402;-72
2021/12/01 07:46:38;;;;;;;1.70;1.30;;;10.90;98.00;;;;;;5134561;27;20027;-72
2021/12/01 07:49:07;;;;;;;1.42;1.33;;;10.90;97.90;;;;;;5134554;27;20027;-72
2021/12/01 07:51:33;;;;;;;1.45;1.33;;;11.00;98.00;;;;;;5132893;27;20023;-72
2021/12/01 07:53:58;;;;;;;2.95;1.65;;;10.90;98.20;;;;;;5133570;27;20100;-72
2021/12/01 07:56:24;;;;;;;4.70;1.60;;;10.90;98.00;;;;;;5134659;27;20061;-72
2021/12/01 07:58:50;;;;;;;3.58;1.55;;;10.90;98.10;;;;;;5133196;27;20471;-72
2021/12/01 08:01:18;;;;;;;2.13;1.65;;;10.90;98.00;;;;;;5134592;27;20035;-72
2021/12/01 08:03:44;;;;;;;4.80;1.95;;;10.90;98.00;;;;;;5131848;27;20035;-72
2021/12/01 08:06:10;;;;;;;4.38;1.88;;;10.90;98.00;;;;;;5133769;27;20377;-72
2021/12/01 08:08:36;;;;;;;4.35;1.90;;;10.90;98.00;;;;;;5134119;27;20023;-72
2021/12/01 08:11:01;;;;;;;3.13;1.40;;;10.80;98.00;;;;;;5133255;27;20075;-72
2021/12/01 08:13:27;;;;;;;1.50;1.40;;;10.80;98.20;;;;;;5134358;27;20034;-72
2021/12/01 08:15:52;;;;;;;5.05;1.60;;;10.80;98.40;;;;;;5134191;27;20030;-72
2021/12/01 08:18:19;;;;;;;3.55;1.95;;;10.80;98.10;;;;;;5132072;27;20030;-72
2021/12/01 08:20:45;;;;;;;3.83;2.10;;;10.90;98.10;;;;;;5133563;27;20019;-72
2021/12/01 08:23:11;;;;;;;4.38;1.85;;;10.80;98.00;;;;;;5133799;27;20019;-72
2021/12/01 08:25:37;;;;;;;5.40;1.90;;;10.80;98.10;;;;;;5133244;27;20401;-72
2021/12/01 08:28:03;;;;;;;4.68;2.13;;;10.80;98.10;;;;;;5133024;27;20542;-72
2021/12/01 08:30:30;;;;;;;2.92;1.70;;;10.80;98.00;;;;;;5134098;27;20027;-72
2021/12/01 08:32:56;;;;;;;3.35;1.90;;;10.80;98.30;;;;;;5132551;27;20034;-73
2021/12/01 08:35:23;;;;;;;2.60;1.70;;;10.80;98.10;;;;;;5127097;27;20031;-72
2021/12/01 08:37:48;;;;;;;3.10;1.90;;;10.80;98.20;;;;;;5133315;27;20074;-72
2021/12/01 08:40:15;;;;;;;3.28;1.98;;;10.80;98.20;;;;;;5132618;27;20065;-72
2021/12/01 08:42:44;;;;;;;2.30;1.45;;;10.80;98.20;;;;;;5133387;27;20062;-72
2021/12/01 08:45:10;;;;;;;2.78;1.55;;;10.80;98.20;;;;;;5132898;27;20076;-72
2021/12/01 08:47:35;;;;;;;3.97;1.33;;;10.70;98.20;;;;;;5133172;27;20447;-72
2021/12/01 08:50:02;;;;;;;5.75;1.77;;;10.70;98.30;;;;;;5132730;27;20039;-72
2021/12/01 08:52:28;;;;;;;3.22;1.50;;;10.70;98.40;;;;;;5133819;27;20035;-72
2021/12/01 08:54:57;;;;;;;8.65;1.85;;;10.60;98.30;;;;;;5132212;27;20023;-72
2021/12/01 08:57:23;;;;;;;9.52;2.20;;;10.60;98.30;;;;;;5132682;27;20027;-72
2021/12/01 08:59:50;;;;;;;8.23;2.22;;;10.60;98.20;;;;;;5131890;27;20043;-72
2021/12/01 09:02:16;;;;;;;9.65;2.40;;;10.50;98.10;;;;;;5131697;27;20042;-72
2021/12/01 09:04:44;;;;;;;4.20;1.75;;;10.50;98.20;;;;;;5131055;27;20039;-72
2021/12/01 09:07:09;;;;;;;4.72;1.50;;;10.40;98.00;;;;;;5130939;27;20151;-73
2021/12/01 09:09:35;;;;;;;7.25;1.98;;;10.40;98.00;;;;;;5132855;27;20459;-72
2021/12/01 09:12:02;;;;;;;6.95;2.17;;;10.50;97.90;;;;;;5132964;27;20065;-73
2021/12/01 09:14:28;;;;;;;7.63;1.95;;;10.50;97.80;;;;;;5131801;27;20031;-72
2021/12/01 09:16:55;;;;;;;5.60;1.90;;;10.40;97.80;;;;;;5132737;27;20035;-73
2021/12/01 09:19:22;;;;;;;4.80;2.05;;;10.40;97.70;;;;;;5133193;27;20026;-73
2021/12/01 09:21:48;;;;;;;7.13;1.42;;;10.40;97.70;;;;;;5132393;27;20115;-73
2021/12/01 09:24:15;;;;;;;7.30;1.90;;;10.40;98.00;;;;;;5132123;27;20494;-72
2021/12/01 09:26:42;;;;;;;5.65;1.52;;;10.40;97.60;;;;;;5132904;27;20145;-73
2021/12/01 09:29:08;;;;;;;4.35;1.45;;;10.40;97.70;;;;;;5131147;27;20035;-73
2021/12/01 09:31:34;;;;;;;4.88;1.90;;;10.30;97.70;;;;;;5131411;27;20026;-72
2021/12/01 09:34:00;;;;;;;6.80;1.52;;;10.30;97.80;;;;;;5132549;27;20072;-73
2021/12/01 09:36:26;;;;;;;5.30;1.58;;;10.30;97.90;;;;;;5131567;27;20038;-73
2021/12/01 09:38:52;;;;;;;4.20;1.63;;;10.30;98.00;;;;;;5133078;27;20031;-72
2021/12/01 09:41:21;;;;;;;4.43;1.70;;;10.30;97.90;;;;;;5131365;27;20470;-72
2021/12/01 09:43:47;;;;;;;3.88;1.83;;;10.30;97.90;;;;;;5112716;27;20045;-73
2021/12/01 09:46:13;;;;;;;7.25;2.22;;;10.30;97.90;;;;;;5131629;27;20118;-74
2021/12/01 09:48:42;;;;;;;6.43;1.40;;;10.30;98.00;;;;;;5132589;28;20447;-74
2021/12/01 09:51:11;;;;;;;8.30;2.08;;;10.30;98.00;;;;;;5131767;28;20031;-74
2021/12/01 09:53:37;;;;;;;9.43;2.10;;;10.20;98.00;;;;;;5132238;28;20467;-73
2021/12/01 09:56:03;;;;;;;8.48;2.20;;;10.20;97.90;;;;;;5132286;28;20027;-73
2021/12/01 09:58:32;;;;;;;10.55;1.85;;;10.20;97.90;;;;;;5131467;28;20043;-73
2021/12/01 10:01:04;;;;;;;5.20;1.80;;;10.20;97.90;;;;;;5131900;28;20037;-74
2021/12/01 10:03:33;;;;;;;9.00;2.03;;;10.20;97.80;;;;;;5131554;28;20027;-74
2021/12/01 10:06:11;;;;;;;3.80;1.30;;;10.20;97.80;;;;;;5132382;28;20300;-72
2021/12/01 10:08:39;;;;;;;6.85;1.52;;;10.20;97.80;;;;;;5132330;28;20048;-71
2021/12/01 10:11:17;;;;;;;11.13;2.10;;;10.20;97.90;;;;;;5131027;28;20072;-72
2021/12/01 10:13:51;;;;;;;5.28;1.75;;;10.30;97.90;;;;;;5132757;28;20030;-72
2021/12/01 10:16:19;;;;;;;8.70;2.17;;;10.20;97.80;;;;;;5132124;28;20046;-73
2021/12/01 10:18:50;;;;;;;10.93;2.03;;;10.20;97.80;;;;;;5131318;28;20115;-72
2021/12/01 10:21:28;;;;;;;8.32;2.08;;;10.20;97.80;;;;;;5132279;28;20034;-72
2021/12/01 10:24:03;;;;;;;12.13;2.28;;;10.20;97.80;;;;;;5131846;28;20118;-73
2021/12/01 10:26:55;;;;;;;9.35;2.17;;;10.20;97.90;;;;;;5132238;27;20031;-73
2021/12/01 10:29:30;;;;;;;17.58;2.85;;;10.10;98.00;;;;;;5127464;27;20039;-73
2021/12/01 10:32:12;;;;;;;12.55;3.40;;;10.10;98.00;;;;;;5135372;27;20039;-73
2021/12/01 10:34:41;;;;;;;14.57;2.67;;;10.00;97.90;;;;;;5131117;27;20033;-73
2021/12/01 10:37:31;;;;;;;17.27;2.47;;;10.00;97.90;;;;;;5129202;27;20035;-73
2021/12/01 10:40:18;;;;;;;8.45;2.33;;;10.00;98.00;;;;;;5131115;27;20489;-72
2021/12/01 10:43:01;;;;;;;10.23;2.67;;;10.00;98.10;;;;;;5134859;27;20483;-72
2021/12/01 10:45:28;;;;;;;8.63;2.28;;;10.00;97.90;;;;;;5135459;27;20039;-72
2021/12/01 10:47:58;;;;;;;9.57;2.95;;;9.90;97.90;;;;;;5134542;27;20031;-73
2021/12/01 10:50:28;;;;;;;8.90;2.28;;;9.90;97.90;;;;;;5135234;27;20031;-73
2021/12/01 10:53:09;;;;;;;7.97;2.47;;;9.90;98.20;;;;;;5134556;27;20038;-73
2021/12/01 10:55:52;;;;;;;13.10;3.00;;;10.00;97.80;;;;;;5134251;27;20469;-72
2021/12/01 10:58:18;;;;;;;9.23;2.33;;;9.90;97.80;;;;;;5135810;27;20023;-72
2021/12/01 11:00:47;;;;;;;14.20;2.50;;;9.90;97.70;;;;;;5134538;27;20042;-75
2021/12/01 11:03:20;;;;;;;12.15;2.22;;;10.00;97.80;;;;;;5134198;27;20066;-74
2021/12/01 11:05:48;;;;;;;12.18;2.35;;;9.90;97.80;;;;;;5129864;27;20407;-73
2021/12/01 11:08:26;;;;;;;10.60;2.20;;;10.00;97.90;;;;;;5133971;27;20431;-73
2021/12/01 11:10:53;;;;;;;10.27;2.25;;;10.00;97.80;;;;;;5134314;27;20485;-72
2021/12/01 11:13:21;;;;;;;9.88;2.78;;;10.00;97.70;;;;;;5134851;27;20023;-72
2021/12/01 11:15:52;;;;;;;11.35;2.50;;;10.00;97.70;;;;;;5133467;27;20034;-72
2021/12/01 11:18:22;;;;;;;16.05;3.08;;;10.00;97.80;;;;;;5135320;27;20059;-72
2021/12/01 11:20:52;;;;;;;10.73;2.63;;;10.00;97.80;;;;;;5132802;27;20034;-72
2021/12/01 11:23:24;;;;;;;19.80;3.03;;;10.00;97.80;;;;;;5135496;27;20432;-72
2021/12/01 11:26:20;;;;;;;13.10;2.53;;;10.00;97.70;;;;;;5132421;27;20470;-72
2021/12/01 11:28:52;;;;;;;12.55;2.45;;;9.90;97.70;;;;;;5121826;27;20520;-72
2021/12/01 11:31:27;;;;;;;14.43;3.05;;;9.90;97.70;;;;;;5121341;27;20031;-72
2021/12/01 11:33:55;;;;;;;16.58;4.32;;;10.00;97.70;;;;;;5134579;27;20031;-72
2021/12/01 11:36:25;;;;;;;16.92;5.47;;;9.90;97.60;;;;;;5134194;27;20382;-72
2021/12/01 11:38:54;;;;;;;14.30;3.97;;;9.90;97.00;;;;;;5128354;27;20031;-72
2021/12/01 11:41:20;;;;;;;19.63;3.83;;;9.70;97.00;;;;;;5134363;27;20031;-72
2021/12/01 11:43:47;;;;;;;17.10;4.15;;;9.60;96.70;;;;;;5133500;27;20051;-73
2021/12/01 11:46:14;;;;;;;12.82;3.20;;;9.60;96.90;;;;;;5133370;27;20042;-74
2021/12/01 11:48:46;;;;;;;16.80;4.47;;;9.60;96.60;;;;;;5134872;27;20027;-72
2021/12/01 11:51:23;;;;;;;19.90;4.40;;;9.50;96.40;;;;;;5132865;27;20039;-72
2021/12/01 11:53:55;;;;;;;19.13;4.00;;;9.40;96.10;;;;;;5133742;27;20025;-72
2021/12/01 11:56:29;;;;;;;15.88;3.88;;;9.40;96.30;;;;;;5131830;27;20031;-73
2021/12/01 11:59:13;;;;;;;24.35;5.18;;;9.40;96.00;;;;;;5133898;27;20430;-72
2021/12/01 12:01:53;;;;;;;17.30;3.95;;;9.30;95.90;;;;;;5133215;27;20103;-73
2021/12/01 12:04:24;;;;;;;20.55;4.30;;;9.30;95.70;;;;;;5132999;27;20035;-73
2021/12/01 12:06:53;;;;;;;15.20;3.80;;;9.20;95.70;;;;;;5133908;27;20038;-76
2021/12/01 12:09:21;;;;;;;20.15;4.00;;;9.30;95.60;;;;;;5133909;27;20038;-74
2021/12/01 12:12:07;;;;;;;23.90;4.78;;;9.30;95.70;;;;;;5133063;27;20023;-73
2021/12/01 12:14:57;;;;;;;13.15;3.33;;;9.30;95.60;;;;;;5133109;27;20061;-73
2021/12/01 12:17:35;;;;;;;19.65;4.32;;;9.30;95.70;;;;;;5132321;27;20122;-73
2021/12/01 12:21:01;;;;;;;17.40;3.65;;;9.20;95.60;;;;;;5131129;27;20795;-73
2021/12/01 12:23:10;;;;;;;14.30;3.05;;;9.20;95.50;;;;;;5126129;27;20043;-73
2021/12/01 12:25:41;;;;;;;10.88;2.92;;;9.10;95.70;;;;;;5132773;27;20051;-74
2021/12/01 12:28:30;;;;;;;12.55;2.75;;;9.10;95.70;;;;;;5132092;27;20471;-74
2021/12/01 12:31:00;;;;;;;14.20;3.38;;;9.10;95.80;;;;;;5132903;27;20039;-74
2021/12/01 12:33:31;;;;;;;11.27;2.85;;;9.10;95.80;;;;;;5133713;27;20034;-74
2021/12/01 12:36:00;;;;;;;14.07;3.33;;;9.10;96.00;;;;;;5133010;27;20031;-74
2021/12/01 12:38:26;;;;;;;8.68;1.85;;;9.00;96.00;;;;;;5132826;27;20027;-73
2021/12/01 12:41:08;;;;;;;10.75;2.60;;;9.00;96.00;;;;;;5132800;27;20023;-77
2021/12/01 12:43:36;;;;;;;11.82;2.65;;;9.00;95.90;;;;;;5130779;27;20509;-74
2021/12/01 12:46:16;;;;;;;8.23;3.25;;;8.90;95.80;;;;;;5130633;27;20057;-73
2021/12/01 12:48:48;;;;;;;9.90;2.88;;;9.00;95.80;;;;;;5131078;27;20034;-74
2021/12/01 12:51:21;;;;;;;10.50;3.08;;;8.90;95.80;;;;;;5131679;27;20094;-74
2021/12/01 12:54:02;;;;;;;6.93;2.00;;;8.90;95.80;;;;;;5130392;27;20046;-74
2021/12/01 12:56:35;;;;;;;11.45;2.17;;;9.00;95.90;;;;;;5131915;27;20035;-73
2021/12/01 12:59:19;;;;;;;10.88;2.33;;;8.90;95.80;;;;;;5133000;27;20416;-73